sensor_id;sensor_type;location;lat;lon;timestamp;P1;durP1;ratioP1;P2;durP2;ratioP2
41466;SDS011;27205;53.690;19.948;2022-12-07T00:04:50;19.90;;;18.10;;
41466;SDS011;27205;53.690;19.948;2022-12-07T00:09:54;23.60;;;21.60;;
41466;SDS011;27205;53.690;19.948;2022-12-07T00:14:57;20.20;;;18.30;;
41466;SDS011;27205;53.690;19.948;2022-12-07T00:20:01;20.80;;;19.20;;
41466;SDS011;27205;53.690;19.948;2022-12-07T00:25:05;20.40;;;18.80;;
41466;SDS011;27205;53.690;19.948;2022-12-07T00:30:08;16.80;;;15.50;;
41466;SDS011;27205;53.690;19.948;2022-12-07T00:35:13;20.40;;;18.90;;
41466;SDS011;27205;53.690;19.948;2022-12-07T00:40:16;20.00;;;18.40;;
41466;SDS011;27205;53.690;19.948;2022-12-07T00:45:20;20.00;;;18.40;;
41466;SDS011;27205;53.690;19.948;2022-12-07T00:50:23;18.30;;;17.00;;
41466;SDS011;27205;53.690;19.948;2022-12-07T00:55:27;19.10;;;17.60;;
41466;SDS011;27205;53.690;19.948;2022-12-07T01:00:30;18.70;;;17.30;;
41466;SDS011;27205;53.690;19.948;2022-12-07T01:05:34;19.20;;;17.70;;
41466;SDS011;27205;53.690;19.948;2022-12-07T01:10:38;19.10;;;17.60;;
41466;SDS011;27205;53.690;19.948;2022-12-07T01:15:42;18.50;;;17.10;;
41466;SDS011;27205;53.690;19.948;2022-12-07T01:20:56;16.50;;;15.30;;
41466;SDS011;27205;53.690;19.948;2022-12-07T01:26:05;19.20;;;17.60;;
41466;SDS011;27205;53.690;19.948;2022-12-07T01:31:14;17.70;;;16.40;;
41466;SDS011;27205;53.690;19.948;2022-12-07T01:36:21;17.40;;;16.00;;
41466;SDS011;27205;53.690;19.948;2022-12-07T01:41:26;19.10;;;17.60;;
41466;SDS011;27205;53.690;19.948;2022-12-07T01:46:30;16.30;;;15.10;;
41466;SDS011;27205;53.690;19.948;2022-12-07T01:51:34;17.60;;;16.40;;
41466;SDS011;27205;53.690;19.948;2022-12-07T01:56:41;22.50;;;20.80;;
41466;SDS011;27205;53.690;19.948;2022-12-07T02:01:52;18.40;;;17.00;;
41466;SDS011;27205;53.690;19.948;2022-12-07T02:06:58;16.90;;;15.70;;
41466;SDS011;27205;53.690;19.948;2022-12-07T02:12:01;13.80;;;12.80;;
41466;SDS011;27205;53.690;19.948;2022-12-07T02:33:05;15.20;;;14.10;;
41466;SDS011;27205;53.690;19.948;2022-12-07T02:38:18;17.00;;;15.70;;
41466;SDS011;27205;53.690;19.948;2022-12-07T02:43:39;14.10;;;13.00;;
41466;SDS011;27205;53.690;19.948;2022-12-07T02:48:47;13.80;;;12.70;;
41466;SDS011;27205;53.690;19.948;2022-12-07T02:53:52;12.30;;;11.40;;
41466;SDS011;27205;53.690;19.948;2022-12-07T03:04:19;10.20;;;9.50;;
41466;SDS011;27205;53.690;19.948;2022-12-07T03:14:55;8.70;;;8.00;;
41466;SDS011;27205;53.690;19.948;2022-12-07T03:20:14;6.80;;;6.40;;
41466;SDS011;27205;53.690;19.948;2022-12-07T03:25:22;7.60;;;7.10;;
41466;SDS011;27205;53.690;19.948;2022-12-07T03:30:30;6.90;;;6.50;;
41466;SDS011;27205;53.690;19.948;2022-12-07T03:35:44;6.70;;;6.20;;
41466;SDS011;27205;53.690;19.948;2022-12-07T03:41:04;6.80;;;6.30;;
41466;SDS011;27205;53.690;19.948;2022-12-07T03:46:31;6.50;;;6.10;;
41466;SDS011;27205;53.690;19.948;2022-12-07T03:51:50;7.90;;;7.30;;
41466;SDS011;27205;53.690;19.948;2022-12-07T03:57:03;7.80;;;7.30;;
41466;SDS011;27205;53.690;19.948;2022-12-07T04:02:08;8.90;;;8.20;;
41466;SDS011;27205;53.690;19.948;2022-12-07T04:07:16;5.70;;;5.30;;
41466;SDS011;27205;53.690;19.948;2022-12-07T04:12:19;4.30;;;4.10;;
41466;SDS011;27205;53.690;19.948;2022-12-07T04:17:23;4.10;;;3.90;;
41466;SDS011;27205;53.690;19.948;2022-12-07T04:22:26;3.60;;;3.40;;
41466;SDS011;27205;53.690;19.948;2022-12-07T04:27:30;4.60;;;4.40;;
41466;SDS011;27205;53.690;19.948;2022-12-07T04:32:33;5.80;;;5.40;;
41466;SDS011;27205;53.690;19.948;2022-12-07T04:37:36;5.50;;;5.10;;
41466;SDS011;27205;53.690;19.948;2022-12-07T04:42:42;3.70;;;3.50;;
41466;SDS011;27205;53.690;19.948;2022-12-07T04:47:45;3.40;;;3.20;;
41466;SDS011;27205;53.690;19.948;2022-12-07T04:52:49;4.70;;;4.40;;
41466;SDS011;27205;53.690;19.948;2022-12-07T04:57:52;4.10;;;3.90;;
41466;SDS011;27205;53.690;19.948;2022-12-07T05:02:56;3.70;;;3.50;;
41466;SDS011;27205;53.690;19.948;2022-12-07T05:07:59;4.60;;;4.30;;
41466;SDS011;27205;53.690;19.948;2022-12-07T05:13:03;6.10;;;5.60;;
41466;SDS011;27205;53.690;19.948;2022-12-07T05:18:06;5.30;;;4.90;;
41466;SDS011;27205;53.690;19.948;2022-12-07T05:23:10;3.20;;;3.00;;
41466;SDS011;27205;53.690;19.948;2022-12-07T05:28:13;4.20;;;4.00;;
41466;SDS011;27205;53.690;19.948;2022-12-07T05:33:17;2.80;;;2.60;;
41466;SDS011;27205;53.690;19.948;2022-12-07T05:38:20;5.30;;;5.00;;
41466;SDS011;27205;53.690;19.948;2022-12-07T05:43:24;6.20;;;5.80;;
41466;SDS011;27205;53.690;19.948;2022-12-07T05:48:27;2.40;;;2.30;;
41466;SDS011;27205;53.690;19.948;2022-12-07T05:53:30;3.60;;;3.40;;
41466;SDS011;27205;53.690;19.948;2022-12-07T05:58:34;5.40;;;5.10;;
41466;SDS011;27205;53.690;19.948;2022-12-07T06:03:56;3.20;;;3.00;;
41466;SDS011;27205;53.690;19.948;2022-12-07T06:09:00;3.00;;;2.90;;
41466;SDS011;27205;53.690;19.948;2022-12-07T06:14:03;4.50;;;4.20;;
41466;SDS011;27205;53.690;19.948;2022-12-07T06:19:07;3.40;;;3.20;;
41466;SDS011;27205;53.690;19.948;2022-12-07T06:24:11;3.70;;;3.50;;
41466;SDS011;27205;53.690;19.948;2022-12-07T06:29:16;8.20;;;7.50;;
41466;SDS011;27205;53.690;19.948;2022-12-07T06:39:26;15.10;;;13.50;;
41466;SDS011;27205;53.690;19.948;2022-12-07T06:44:31;13.50;;;12.20;;
41466;SDS011;27205;53.690;19.948;2022-12-07T06:49:35;14.70;;;13.20;;
41466;SDS011;27205;53.690;19.948;2022-12-07T06:54:38;15.70;;;14.20;;
41466;SDS011;27205;53.690;19.948;2022-12-07T06:59:42;16.50;;;14.30;;
41466;SDS011;27205;53.690;19.948;2022-12-07T07:04:45;14.70;;;13.20;;
41466;SDS011;27205;53.690;19.948;2022-12-07T07:09:49;14.50;;;12.90;;
41466;SDS011;27205;53.690;19.948;2022-12-07T07:14:52;15.60;;;14.00;;
41466;SDS011;27205;53.690;19.948;2022-12-07T07:19:56;12.90;;;11.60;;
41466;SDS011;27205;53.690;19.948;2022-12-07T07:24:59;13.60;;;12.30;;
41466;SDS011;27205;53.690;19.948;2022-12-07T07:30:03;15.80;;;14.10;;
41466;SDS011;27205;53.690;19.948;2022-12-07T07:40:12;13.00;;;11.70;;
41466;SDS011;27205;53.690;19.948;2022-12-07T07:45:16;14.20;;;12.80;;
41466;SDS011;27205;53.690;19.948;2022-12-07T07:50:20;12.90;;;11.70;;
41466;SDS011;27205;53.690;19.948;2022-12-07T07:55:24;19.80;;;17.90;;
41466;SDS011;27205;53.690;19.948;2022-12-07T08:00:27;15.50;;;14.00;;
41466;SDS011;27205;53.690;19.948;2022-12-07T08:05:31;16.80;;;15.20;;
41466;SDS011;27205;53.690;19.948;2022-12-07T08:10:34;20.20;;;18.10;;
41466;SDS011;27205;53.690;19.948;2022-12-07T08:15:38;17.20;;;15.40;;
41466;SDS011;27205;53.690;19.948;2022-12-07T08:20:44;14.00;;;12.60;;
41466;SDS011;27205;53.690;19.948;2022-12-07T08:25:47;11.10;;;10.10;;
41466;SDS011;27205;53.690;19.948;2022-12-07T08:30:51;8.00;;;7.30;;
41466;SDS011;27205;53.690;19.948;2022-12-07T08:35:55;9.60;;;8.70;;
41466;SDS011;27205;53.690;19.948;2022-12-07T08:41:13;8.90;;;8.00;;
41466;SDS011;27205;53.690;19.948;2022-12-07T08:51:40;9.90;;;6.80;;
41466;SDS011;27205;53.690;19.948;2022-12-07T08:56:44;6.40;;;5.90;;
41466;SDS011;27205;53.690;19.948;2022-12-07T09:01:55;7.00;;;6.40;;
41466;SDS011;27205;53.690;19.948;2022-12-07T09:06:59;5.30;;;4.80;;
41466;SDS011;27205;53.690;19.948;2022-12-07T09:12:03;5.00;;;4.70;;
41466;SDS011;27205;53.690;19.948;2022-12-07T09:17:07;3.60;;;3.40;;
41466;SDS011;27205;53.690;19.948;2022-12-07T09:22:12;3.80;;;3.60;;
41466;SDS011;27205;53.690;19.948;2022-12-07T09:27:16;3.20;;;3.00;;
41466;SDS011;27205;53.690;19.948;2022-12-07T09:32:20;2.90;;;2.80;;
41466;SDS011;27205;53.690;19.948;2022-12-07T09:37:24;2.10;;;2.00;;
41466;SDS011;27205;53.690;19.948;2022-12-07T09:42:34;2.30;;;2.20;;
41466;SDS011;27205;53.690;19.948;2022-12-07T09:47:42;3.40;;;3.20;;
41466;SDS011;27205;53.690;19.948;2022-12-07T09:52:46;3.50;;;3.30;;
41466;SDS011;27205;53.690;19.948;2022-12-07T09:57:51;3.00;;;2.80;;
41466;SDS011;27205;53.690;19.948;2022-12-07T10:02:59;2.80;;;2.70;;
41466;SDS011;27205;53.690;19.948;2022-12-07T10:08:04;3.40;;;3.20;;
41466;SDS011;27205;53.690;19.948;2022-12-07T10:23:22;3.60;;;3.40;;
41466;SDS011;27205;53.690;19.948;2022-12-07T10:28:33;2.20;;;2.10;;
41466;SDS011;27205;53.690;19.948;2022-12-07T10:33:51;3.20;;;3.00;;
41466;SDS011;27205;53.690;19.948;2022-12-07T10:39:00;3.00;;;2.80;;
41466;SDS011;27205;53.690;19.948;2022-12-07T10:44:19;3.10;;;2.90;;
41466;SDS011;27205;53.690;19.948;2022-12-07T11:00:23;5.60;;;5.20;;
41466;SDS011;27205;53.690;19.948;2022-12-07T11:11:12;9.20;;;8.30;;
41466;SDS011;27205;53.690;19.948;2022-12-07T11:21:30;13.90;;;12.50;;
41466;SDS011;27205;53.690;19.948;2022-12-07T11:37:41;8.90;;;8.20;;
41466;SDS011;27205;53.690;19.948;2022-12-07T11:42:49;11.90;;;10.70;;
41466;SDS011;27205;53.690;19.948;2022-12-07T11:53:45;15.20;;;13.70;;
41466;SDS011;27205;53.690;19.948;2022-12-07T11:59:02;9.20;;;8.40;;
41466;SDS011;27205;53.690;19.948;2022-12-07T12:04:35;13.60;;;12.40;;
41466;SDS011;27205;53.690;19.948;2022-12-07T12:10:02;17.10;;;15.50;;
41466;SDS011;27205;53.690;19.948;2022-12-07T12:21:04;8.40;;;7.70;;
41466;SDS011;27205;53.690;19.948;2022-12-07T12:26:22;8.60;;;7.90;;
41466;SDS011;27205;53.690;19.948;2022-12-07T12:31:34;6.20;;;5.80;;
41466;SDS011;27205;53.690;19.948;2022-12-07T12:46:58;14.10;;;12.80;;
41466;SDS011;27205;53.690;19.948;2022-12-07T12:57:41;19.30;;;17.50;;
41466;SDS011;27205;53.690;19.948;2022-12-07T13:02:49;13.60;;;12.40;;
41466;SDS011;27205;53.690;19.948;2022-12-07T13:07:59;11.30;;;10.30;;
41466;SDS011;27205;53.690;19.948;2022-12-07T13:28:47;10.00;;;9.30;;
41466;SDS011;27205;53.690;19.948;2022-12-07T13:33:52;11.80;;;10.80;;
41466;SDS011;27205;53.690;19.948;2022-12-07T13:38:56;10.80;;;10.00;;
41466;SDS011;27205;53.690;19.948;2022-12-07T13:44:09;9.40;;;8.70;;
41466;SDS011;27205;53.690;19.948;2022-12-07T13:54:24;8.00;;;7.40;;
41466;SDS011;27205;53.690;19.948;2022-12-07T13:59:27;8.10;;;7.50;;
41466;SDS011;27205;53.690;19.948;2022-12-07T14:04:35;7.50;;;7.00;;
41466;SDS011;27205;53.690;19.948;2022-12-07T14:09:39;8.70;;;8.10;;
41466;SDS011;27205;53.690;19.948;2022-12-07T14:14:46;9.20;;;8.60;;
41466;SDS011;27205;53.690;19.948;2022-12-07T14:19:54;8.40;;;7.80;;
41466;SDS011;27205;53.690;19.948;2022-12-07T14:30:30;8.10;;;7.60;;
41466;SDS011;27205;53.690;19.948;2022-12-07T14:35:36;6.80;;;6.30;;
41466;SDS011;27205;53.690;19.948;2022-12-07T14:40:43;6.70;;;6.30;;
41466;SDS011;27205;53.690;19.948;2022-12-07T14:45:46;6.10;;;5.70;;
41466;SDS011;27205;53.690;19.948;2022-12-07T14:50:51;6.10;;;5.70;;
41466;SDS011;27205;53.690;19.948;2022-12-07T14:56:16;7.60;;;7.10;;
41466;SDS011;27205;53.690;19.948;2022-12-07T15:01:20;6.70;;;6.30;;
41466;SDS011;27205;53.690;19.948;2022-12-07T15:06:28;7.00;;;6.60;;
41466;SDS011;27205;53.690;19.948;2022-12-07T15:11:31;6.10;;;5.80;;
41466;SDS011;27205;53.690;19.948;2022-12-07T15:16:35;6.80;;;6.40;;
41466;SDS011;27205;53.690;19.948;2022-12-07T15:22:02;7.40;;;6.90;;
41466;SDS011;27205;53.690;19.948;2022-12-07T15:27:06;7.20;;;6.80;;
41466;SDS011;27205;53.690;19.948;2022-12-07T15:32:09;5.80;;;5.50;;
41466;SDS011;27205;53.690;19.948;2022-12-07T15:37:13;5.00;;;4.70;;
41466;SDS011;27205;53.690;19.948;2022-12-07T15:42:17;7.00;;;6.50;;
41466;SDS011;27205;53.690;19.948;2022-12-07T15:47:20;5.00;;;4.70;;
41466;SDS011;27205;53.690;19.948;2022-12-07T15:52:23;6.00;;;5.60;;
41466;SDS011;27205;53.690;19.948;2022-12-07T15:57:27;8.70;;;8.10;;
41466;SDS011;27205;53.690;19.948;2022-12-07T16:02:30;6.70;;;6.30;;
41466;SDS011;27205;53.690;19.948;2022-12-07T16:07:41;6.80;;;6.40;;
41466;SDS011;27205;53.690;19.948;2022-12-07T16:12:46;7.50;;;7.10;;
41466;SDS011;27205;53.690;19.948;2022-12-07T16:17:50;7.70;;;7.20;;
41466;SDS011;27205;53.690;19.948;2022-12-07T16:27:58;7.50;;;7.00;;
41466;SDS011;27205;53.690;19.948;2022-12-07T16:33:01;6.30;;;5.90;;
41466;SDS011;27205;53.690;19.948;2022-12-07T16:38:05;7.80;;;7.30;;
41466;SDS011;27205;53.690;19.948;2022-12-07T16:43:08;9.40;;;8.70;;
41466;SDS011;27205;53.690;19.948;2022-12-07T16:48:15;11.70;;;10.80;;
41466;SDS011;27205;53.690;19.948;2022-12-07T16:53:20;13.60;;;12.50;;
41466;SDS011;27205;53.690;19.948;2022-12-07T16:58:24;8.10;;;7.60;;
41466;SDS011;27205;53.690;19.948;2022-12-07T17:03:28;7.60;;;7.20;;
41466;SDS011;27205;53.690;19.948;2022-12-07T17:08:31;15.90;;;14.50;;
41466;SDS011;27205;53.690;19.948;2022-12-07T17:13:35;12.30;;;11.30;;
41466;SDS011;27205;53.690;19.948;2022-12-07T17:18:57;14.40;;;13.20;;
41466;SDS011;27205;53.690;19.948;2022-12-07T17:24:02;15.40;;;14.00;;
41466;SDS011;27205;53.690;19.948;2022-12-07T17:29:07;16.40;;;15.00;;
41466;SDS011;27205;53.690;19.948;2022-12-07T17:34:13;21.30;;;19.20;;
41466;SDS011;27205;53.690;19.948;2022-12-07T17:39:17;19.50;;;17.70;;
41466;SDS011;27205;53.690;19.948;2022-12-07T17:44:22;21.50;;;19.50;;
41466;SDS011;27205;53.690;19.948;2022-12-07T17:49:25;26.60;;;24.10;;
41466;SDS011;27205;53.690;19.948;2022-12-07T17:54:31;18.20;;;16.60;;
41466;SDS011;27205;53.690;19.948;2022-12-07T17:59:34;15.20;;;13.90;;
41466;SDS011;27205;53.690;19.948;2022-12-07T18:04:37;20.40;;;18.40;;
41466;SDS011;27205;53.690;19.948;2022-12-07T18:09:44;13.30;;;12.10;;
41466;SDS011;27205;53.690;19.948;2022-12-07T18:14:47;13.70;;;12.50;;
41466;SDS011;27205;53.690;19.948;2022-12-07T18:19:53;11.60;;;10.60;;
41466;SDS011;27205;53.690;19.948;2022-12-07T18:49:30;19.70;;;17.80;;
41466;SDS011;27205;53.690;19.948;2022-12-07T18:54:32;24.10;;;21.80;;
41466;SDS011;27205;53.690;19.948;2022-12-07T18:59:34;16.20;;;14.70;;
41466;SDS011;27205;53.690;19.948;2022-12-07T19:04:50;18.00;;;16.30;;
41466;SDS011;27205;53.690;19.948;2022-12-07T19:09:52;21.60;;;19.50;;
41466;SDS011;27205;53.690;19.948;2022-12-07T19:14:54;16.50;;;15.00;;
41466;SDS011;27205;53.690;19.948;2022-12-07T19:19:56;12.50;;;11.40;;
41466;SDS011;27205;53.690;19.948;2022-12-07T19:24:59;13.10;;;11.90;;
41466;SDS011;27205;53.690;19.948;2022-12-07T19:30:02;21.70;;;19.60;;
41466;SDS011;27205;53.690;19.948;2022-12-07T19:35:05;17.80;;;16.10;;
41466;SDS011;27205;53.690;19.948;2022-12-07T19:40:08;14.10;;;12.70;;
41466;SDS011;27205;53.690;19.948;2022-12-07T19:45:11;10.30;;;9.40;;
41466;SDS011;27205;53.690;19.948;2022-12-07T19:50:13;12.20;;;11.10;;
41466;SDS011;27205;53.690;19.948;2022-12-07T19:55:15;8.70;;;8.00;;
41466;SDS011;27205;53.690;19.948;2022-12-07T20:00:17;8.00;;;7.40;;
41466;SDS011;27205;53.690;19.948;2022-12-07T20:05:20;6.30;;;5.90;;
41466;SDS011;27205;53.690;19.948;2022-12-07T20:10:25;10.10;;;9.30;;
41466;SDS011;27205;53.690;19.948;2022-12-07T20:15:27;7.50;;;7.00;;
41466;SDS011;27205;53.690;19.948;2022-12-07T20:20:31;6.30;;;5.90;;
41466;SDS011;27205;53.690;19.948;2022-12-07T20:25:34;6.20;;;5.70;;
41466;SDS011;27205;53.690;19.948;2022-12-07T20:30:40;7.80;;;7.20;;
41466;SDS011;27205;53.690;19.948;2022-12-07T20:35:50;8.30;;;7.60;;
41466;SDS011;27205;53.690;19.948;2022-12-07T20:40:52;7.40;;;6.80;;
41466;SDS011;27205;53.690;19.948;2022-12-07T20:45:54;6.90;;;6.40;;
41466;SDS011;27205;53.690;19.948;2022-12-07T20:51:03;9.50;;;8.70;;
41466;SDS011;27205;53.690;19.948;2022-12-07T20:56:06;9.10;;;8.30;;
41466;SDS011;27205;53.690;19.948;2022-12-07T21:01:17;6.90;;;6.40;;
41466;SDS011;27205;53.690;19.948;2022-12-07T21:41:28;6.60;;;6.10;;
41466;SDS011;27205;53.690;19.948;2022-12-07T21:46:33;5.60;;;5.20;;
41466;SDS011;27205;53.690;19.948;2022-12-07T21:51:38;5.80;;;5.40;;
41466;SDS011;27205;53.690;19.948;2022-12-07T21:56:42;5.30;;;5.00;;
41466;SDS011;27205;53.690;19.948;2022-12-07T22:01:47;5.30;;;4.90;;
41466;SDS011;27205;53.690;19.948;2022-12-07T22:06:52;4.40;;;4.10;;
41466;SDS011;27205;53.690;19.948;2022-12-07T22:11:58;4.40;;;4.10;;
41466;SDS011;27205;53.690;19.948;2022-12-07T22:17:02;3.90;;;3.60;;
41466;SDS011;27205;53.690;19.948;2022-12-07T22:22:06;5.40;;;4.90;;
41466;SDS011;27205;53.690;19.948;2022-12-07T22:27:10;4.40;;;4.10;;
41466;SDS011;27205;53.690;19.948;2022-12-07T22:32:13;5.00;;;4.60;;
41466;SDS011;27205;53.690;19.948;2022-12-07T22:37:36;3.70;;;3.50;;
41466;SDS011;27205;53.690;19.948;2022-12-07T22:42:40;4.10;;;3.80;;
41466;SDS011;27205;53.690;19.948;2022-12-07T22:47:43;3.80;;;3.50;;
41466;SDS011;27205;53.690;19.948;2022-12-07T22:52:47;3.10;;;2.90;;
41466;SDS011;27205;53.690;19.948;2022-12-07T22:57:50;4.20;;;3.90;;
41466;SDS011;27205;53.690;19.948;2022-12-07T23:02:54;3.90;;;3.60;;
41466;SDS011;27205;53.690;19.948;2022-12-07T23:07:58;3.80;;;3.60;;
41466;SDS011;27205;53.690;19.948;2022-12-07T23:13:02;3.20;;;2.90;;
41466;SDS011;27205;53.690;19.948;2022-12-07T23:18:24;3.10;;;2.90;;
41466;SDS011;27205;53.690;19.948;2022-12-07T23:23:27;3.10;;;2.90;;
41466;SDS011;27205;53.690;19.948;2022-12-07T23:28:31;4.10;;;3.60;;
41466;SDS011;27205;53.690;19.948;2022-12-07T23:33:35;3.80;;;3.50;;
41466;SDS011;27205;53.690;19.948;2022-12-07T23:38:40;3.90;;;3.40;;
41466;SDS011;27205;53.690;19.948;2022-12-07T23:43:44;2.70;;;2.50;;
41466;SDS011;27205;53.690;19.948;2022-12-07T23:53:56;3.20;;;3.00;;
41466;SDS011;27205;53.690;19.948;2022-12-07T23:59:00;3.80;;;3.50;;
